sensor_id;sensor_type;location;lat;lon;timestamp;P1;durP1;ratioP1;P2;durP2;ratioP2
13933;SDS011;7039;52.168;9.866;2023-04-28T00:01:48;11.33;;;3.47;;
13933;SDS011;7039;52.168;9.866;2023-04-28T00:04:16;8.37;;;3.47;;
13933;SDS011;7039;52.168;9.866;2023-04-28T00:06:42;8.67;;;2.97;;
13933;SDS011;7039;52.168;9.866;2023-04-28T00:09:09;5.13;;;3.20;;
13933;SDS011;7039;52.168;9.866;2023-04-28T00:11:36;4.77;;;3.20;;
13933;SDS011;7039;52.168;9.866;2023-04-28T00:14:02;4.93;;;2.97;;
13933;SDS011;7039;52.168;9.866;2023-04-28T00:16:29;5.20;;;2.90;;
13933;SDS011;7039;52.168;9.866;2023-04-28T00:18:56;9.97;;;3.20;;
13933;SDS011;7039;52.168;9.866;2023-04-28T00:21:23;7.90;;;3.10;;
13933;SDS011;7039;52.168;9.866;2023-04-28T00:23:50;5.30;;;3.23;;
13933;SDS011;7039;52.168;9.866;2023-04-28T00:26:16;6.80;;;3.30;;
13933;SDS011;7039;52.168;9.866;2023-04-28T00:28:43;8.03;;;3.43;;
13933;SDS011;7039;52.168;9.866;2023-04-28T00:31:09;6.40;;;3.00;;
13933;SDS011;7039;52.168;9.866;2023-04-28T00:33:37;7.53;;;3.63;;
13933;SDS011;7039;52.168;9.866;2023-04-28T00:36:04;7.93;;;3.40;;
13933;SDS011;7039;52.168;9.866;2023-04-28T00:38:32;8.13;;;3.73;;
13933;SDS011;7039;52.168;9.866;2023-04-28T00:40:58;5.37;;;3.37;;
13933;SDS011;7039;52.168;9.866;2023-04-28T00:43:25;4.77;;;3.37;;
13933;SDS011;7039;52.168;9.866;2023-04-28T00:45:52;6.37;;;4.00;;
13933;SDS011;7039;52.168;9.866;2023-04-28T00:48:18;5.60;;;3.50;;
13933;SDS011;7039;52.168;9.866;2023-04-28T00:50:46;7.97;;;3.60;;
13933;SDS011;7039;52.168;9.866;2023-04-28T00:53:13;8.00;;;3.63;;
13933;SDS011;7039;52.168;9.866;2023-04-28T00:55:41;6.17;;;3.50;;
13933;SDS011;7039;52.168;9.866;2023-04-28T00:58:07;7.97;;;3.47;;
13933;SDS011;7039;52.168;9.866;2023-04-28T01:00:34;8.93;;;3.50;;
13933;SDS011;7039;52.168;9.866;2023-04-28T01:03:01;5.13;;;3.30;;
13933;SDS011;7039;52.168;9.866;2023-04-28T01:05:28;7.40;;;3.43;;
13933;SDS011;7039;52.168;9.866;2023-04-28T01:07:55;9.77;;;3.63;;
13933;SDS011;7039;52.168;9.866;2023-04-28T01:10:22;5.23;;;3.07;;
13933;SDS011;7039;52.168;9.866;2023-04-28T01:12:49;8.43;;;3.10;;
13933;SDS011;7039;52.168;9.866;2023-04-28T01:15:16;7.40;;;3.23;;
13933;SDS011;7039;52.168;9.866;2023-04-28T01:17:45;7.50;;;3.73;;
13933;SDS011;7039;52.168;9.866;2023-04-28T01:20:12;5.83;;;3.20;;
13933;SDS011;7039;52.168;9.866;2023-04-28T01:22:38;7.97;;;3.10;;
13933;SDS011;7039;52.168;9.866;2023-04-28T01:25:07;3.67;;;2.90;;
13933;SDS011;7039;52.168;9.866;2023-04-28T01:27:33;7.63;;;3.73;;
13933;SDS011;7039;52.168;9.866;2023-04-28T01:30:00;7.23;;;3.13;;
13933;SDS011;7039;52.168;9.866;2023-04-28T01:32:26;6.17;;;3.53;;
13933;SDS011;7039;52.168;9.866;2023-04-28T01:34:52;4.80;;;3.37;;
13933;SDS011;7039;52.168;9.866;2023-04-28T01:37:19;10.03;;;3.60;;
13933;SDS011;7039;52.168;9.866;2023-04-28T01:39:45;5.93;;;3.40;;
13933;SDS011;7039;52.168;9.866;2023-04-28T01:42:13;5.23;;;3.70;;
13933;SDS011;7039;52.168;9.866;2023-04-28T01:44:40;10.87;;;3.93;;
13933;SDS011;7039;52.168;9.866;2023-04-28T01:47:06;10.50;;;3.63;;
13933;SDS011;7039;52.168;9.866;2023-04-28T01:49:32;4.53;;;3.30;;
13933;SDS011;7039;52.168;9.866;2023-04-28T01:51:59;6.50;;;3.50;;
13933;SDS011;7039;52.168;9.866;2023-04-28T01:54:25;7.07;;;3.80;;
13933;SDS011;7039;52.168;9.866;2023-04-28T01:56:52;6.07;;;4.00;;
13933;SDS011;7039;52.168;9.866;2023-04-28T01:59:20;7.60;;;3.87;;
13933;SDS011;7039;52.168;9.866;2023-04-28T02:01:46;7.77;;;3.70;;
13933;SDS011;7039;52.168;9.866;2023-04-28T02:04:13;6.17;;;3.10;;
13933;SDS011;7039;52.168;9.866;2023-04-28T02:06:40;8.00;;;3.50;;
13933;SDS011;7039;52.168;9.866;2023-04-28T02:09:06;5.63;;;3.87;;
13933;SDS011;7039;52.168;9.866;2023-04-28T02:11:33;9.43;;;3.33;;
13933;SDS011;7039;52.168;9.866;2023-04-28T02:13:59;5.03;;;3.43;;
13933;SDS011;7039;52.168;9.866;2023-04-28T02:16:27;7.00;;;3.50;;
13933;SDS011;7039;52.168;9.866;2023-04-28T02:18:53;5.90;;;3.57;;
13933;SDS011;7039;52.168;9.866;2023-04-28T02:21:20;8.27;;;3.80;;
13933;SDS011;7039;52.168;9.866;2023-04-28T02:23:46;9.87;;;4.17;;
13933;SDS011;7039;52.168;9.866;2023-04-28T02:26:14;5.57;;;3.50;;
13933;SDS011;7039;52.168;9.866;2023-04-28T02:28:41;7.20;;;4.30;;
13933;SDS011;7039;52.168;9.866;2023-04-28T02:31:07;6.53;;;3.67;;
13933;SDS011;7039;52.168;9.866;2023-04-28T02:33:37;6.17;;;3.70;;
13933;SDS011;7039;52.168;9.866;2023-04-28T02:36:04;7.77;;;3.87;;
13933;SDS011;7039;52.168;9.866;2023-04-28T02:38:31;5.03;;;3.23;;
13933;SDS011;7039;52.168;9.866;2023-04-28T02:40:58;8.17;;;3.83;;
13933;SDS011;7039;52.168;9.866;2023-04-28T02:43:25;6.83;;;4.23;;
13933;SDS011;7039;52.168;9.866;2023-04-28T02:45:51;8.07;;;3.67;;
13933;SDS011;7039;52.168;9.866;2023-04-28T02:48:18;6.70;;;3.63;;
13933;SDS011;7039;52.168;9.866;2023-04-28T02:50:46;6.80;;;4.07;;
13933;SDS011;7039;52.168;9.866;2023-04-28T02:53:12;6.17;;;4.17;;
13933;SDS011;7039;52.168;9.866;2023-04-28T02:55:39;8.27;;;4.10;;
13933;SDS011;7039;52.168;9.866;2023-04-28T02:58:05;5.47;;;3.67;;
13933;SDS011;7039;52.168;9.866;2023-04-28T03:00:32;6.83;;;4.50;;
13933;SDS011;7039;52.168;9.866;2023-04-28T03:02:58;11.23;;;4.40;;
13933;SDS011;7039;52.168;9.866;2023-04-28T03:05:25;6.60;;;3.67;;
13933;SDS011;7039;52.168;9.866;2023-04-28T03:07:53;8.00;;;4.50;;
13933;SDS011;7039;52.168;9.866;2023-04-28T03:10:20;6.30;;;3.73;;
13933;SDS011;7039;52.168;9.866;2023-04-28T03:12:46;5.80;;;3.93;;
13933;SDS011;7039;52.168;9.866;2023-04-28T03:15:13;8.13;;;3.83;;
13933;SDS011;7039;52.168;9.866;2023-04-28T03:17:40;7.00;;;4.40;;
13933;SDS011;7039;52.168;9.866;2023-04-28T03:20:07;7.90;;;4.03;;
13933;SDS011;7039;52.168;9.866;2023-04-28T03:22:34;7.43;;;4.40;;
13933;SDS011;7039;52.168;9.866;2023-04-28T03:25:03;7.93;;;4.17;;
13933;SDS011;7039;52.168;9.866;2023-04-28T03:27:30;6.47;;;3.90;;
13933;SDS011;7039;52.168;9.866;2023-04-28T03:29:57;5.83;;;4.17;;
13933;SDS011;7039;52.168;9.866;2023-04-28T03:32:23;7.20;;;4.33;;
13933;SDS011;7039;52.168;9.866;2023-04-28T03:34:49;6.63;;;4.30;;
13933;SDS011;7039;52.168;9.866;2023-04-28T03:37:16;11.97;;;4.47;;
13933;SDS011;7039;52.168;9.866;2023-04-28T03:39:42;7.93;;;4.13;;
13933;SDS011;7039;52.168;9.866;2023-04-28T03:42:11;11.03;;;4.83;;
13933;SDS011;7039;52.168;9.866;2023-04-28T03:44:37;9.77;;;4.50;;
13933;SDS011;7039;52.168;9.866;2023-04-28T03:47:04;8.37;;;4.03;;
13933;SDS011;7039;52.168;9.866;2023-04-28T03:49:30;7.27;;;4.60;;
13933;SDS011;7039;52.168;9.866;2023-04-28T03:51:57;10.13;;;4.73;;
13933;SDS011;7039;52.168;9.866;2023-04-28T03:54:23;8.30;;;4.33;;
13933;SDS011;7039;52.168;9.866;2023-04-28T03:56:50;9.07;;;4.40;;
13933;SDS011;7039;52.168;9.866;2023-04-28T03:59:17;7.20;;;4.33;;
13933;SDS011;7039;52.168;9.866;2023-04-28T04:01:44;7.67;;;4.40;;
13933;SDS011;7039;52.168;9.866;2023-04-28T04:04:10;9.07;;;4.53;;
13933;SDS011;7039;52.168;9.866;2023-04-28T04:06:37;5.10;;;3.90;;
13933;SDS011;7039;52.168;9.866;2023-04-28T04:09:03;6.83;;;4.90;;
13933;SDS011;7039;52.168;9.866;2023-04-28T04:11:30;6.70;;;4.20;;
13933;SDS011;7039;52.168;9.866;2023-04-28T04:13:56;10.63;;;4.87;;
13933;SDS011;7039;52.168;9.866;2023-04-28T04:16:24;8.60;;;4.20;;
13933;SDS011;7039;52.168;9.866;2023-04-28T04:18:51;7.47;;;4.83;;
13933;SDS011;7039;52.168;9.866;2023-04-28T04:21:17;6.37;;;4.07;;
13933;SDS011;7039;52.168;9.866;2023-04-28T04:23:44;7.87;;;4.33;;
13933;SDS011;7039;52.168;9.866;2023-04-28T04:26:10;9.57;;;4.40;;
13933;SDS011;7039;52.168;9.866;2023-04-28T04:28:37;9.10;;;4.70;;
13933;SDS011;7039;52.168;9.866;2023-04-28T04:31:03;11.50;;;4.73;;
13933;SDS011;7039;52.168;9.866;2023-04-28T04:33:31;9.40;;;4.70;;
13933;SDS011;7039;52.168;9.866;2023-04-28T04:35:58;7.40;;;4.83;;
13933;SDS011;7039;52.168;9.866;2023-04-28T04:38:25;11.27;;;4.50;;
13933;SDS011;7039;52.168;9.866;2023-04-28T04:40:51;7.67;;;4.63;;
13933;SDS011;7039;52.168;9.866;2023-04-28T04:43:18;8.10;;;4.17;;
13933;SDS011;7039;52.168;9.866;2023-04-28T04:45:44;8.57;;;4.43;;
13933;SDS011;7039;52.168;9.866;2023-04-28T04:48:11;8.00;;;4.47;;
13933;SDS011;7039;52.168;9.866;2023-04-28T04:50:39;8.00;;;4.50;;
13933;SDS011;7039;52.168;9.866;2023-04-28T04:53:06;16.37;;;5.30;;
13933;SDS011;7039;52.168;9.866;2023-04-28T04:55:32;8.33;;;4.70;;
13933;SDS011;7039;52.168;9.866;2023-04-28T04:57:59;10.87;;;4.40;;
13933;SDS011;7039;52.168;9.866;2023-04-28T05:00:26;7.60;;;4.97;;
13933;SDS011;7039;52.168;9.866;2023-04-28T05:02:52;7.63;;;4.90;;
13933;SDS011;7039;52.168;9.866;2023-04-28T05:05:19;9.13;;;4.53;;
13933;SDS011;7039;52.168;9.866;2023-04-28T05:07:46;11.20;;;4.70;;
13933;SDS011;7039;52.168;9.866;2023-04-28T05:10:13;7.57;;;4.37;;
13933;SDS011;7039;52.168;9.866;2023-04-28T05:12:39;10.83;;;5.17;;
13933;SDS011;7039;52.168;9.866;2023-04-28T05:15:06;6.27;;;4.37;;
13933;SDS011;7039;52.168;9.866;2023-04-28T05:17:33;8.80;;;5.00;;
13933;SDS011;7039;52.168;9.866;2023-04-28T05:19:59;11.37;;;4.73;;
13933;SDS011;7039;52.168;9.866;2023-04-28T05:22:26;9.30;;;4.83;;
13933;SDS011;7039;52.168;9.866;2023-04-28T05:24:54;7.40;;;4.50;;
13933;SDS011;7039;52.168;9.866;2023-04-28T05:27:20;7.80;;;5.07;;
13933;SDS011;7039;52.168;9.866;2023-04-28T05:29:47;7.17;;;4.53;;
13933;SDS011;7039;52.168;9.866;2023-04-28T05:32:13;12.10;;;4.60;;
13933;SDS011;7039;52.168;9.866;2023-04-28T05:34:40;9.00;;;4.50;;
13933;SDS011;7039;52.168;9.866;2023-04-28T05:37:06;9.47;;;4.73;;
13933;SDS011;7039;52.168;9.866;2023-04-28T05:39:32;9.50;;;4.43;;
13933;SDS011;7039;52.168;9.866;2023-04-28T05:42:00;9.23;;;4.83;;
13933;SDS011;7039;52.168;9.866;2023-04-28T05:44:28;6.90;;;4.47;;
13933;SDS011;7039;52.168;9.866;2023-04-28T05:46:55;9.23;;;4.33;;
13933;SDS011;7039;52.168;9.866;2023-04-28T05:49:21;9.83;;;4.70;;
13933;SDS011;7039;52.168;9.866;2023-04-28T05:51:48;9.53;;;4.50;;
13933;SDS011;7039;52.168;9.866;2023-04-28T05:54:14;11.83;;;5.40;;
13933;SDS011;7039;52.168;9.866;2023-04-28T05:56:40;11.27;;;4.53;;
13933;SDS011;7039;52.168;9.866;2023-04-28T05:59:08;9.50;;;4.70;;
13933;SDS011;7039;52.168;9.866;2023-04-28T06:01:35;9.07;;;4.47;;
13933;SDS011;7039;52.168;9.866;2023-04-28T06:04:02;8.07;;;4.50;;
13933;SDS011;7039;52.168;9.866;2023-04-28T06:06:29;10.90;;;4.53;;
13933;SDS011;7039;52.168;9.866;2023-04-28T06:08:55;8.00;;;4.83;;
13933;SDS011;7039;52.168;9.866;2023-04-28T06:11:22;7.30;;;4.73;;
13933;SDS011;7039;52.168;9.866;2023-04-28T06:13:48;13.80;;;4.63;;
13933;SDS011;7039;52.168;9.866;2023-04-28T06:16:17;7.47;;;4.70;;
13933;SDS011;7039;52.168;9.866;2023-04-28T06:18:43;6.43;;;4.50;;
13933;SDS011;7039;52.168;9.866;2023-04-28T06:21:10;6.33;;;4.43;;
13933;SDS011;7039;52.168;9.866;2023-04-28T06:23:36;9.97;;;5.73;;
13933;SDS011;7039;52.168;9.866;2023-04-28T06:26:04;9.90;;;4.70;;
13933;SDS011;7039;52.168;9.866;2023-04-28T06:28:31;7.03;;;4.53;;
13933;SDS011;7039;52.168;9.866;2023-04-28T06:30:58;7.03;;;4.70;;
13933;SDS011;7039;52.168;9.866;2023-04-28T06:33:26;10.73;;;4.90;;
13933;SDS011;7039;52.168;9.866;2023-04-28T06:35:52;7.90;;;4.90;;
13933;SDS011;7039;52.168;9.866;2023-04-28T06:38:19;8.47;;;4.90;;
13933;SDS011;7039;52.168;9.866;2023-04-28T06:40:45;9.30;;;5.07;;
13933;SDS011;7039;52.168;9.866;2023-04-28T06:43:12;7.70;;;5.00;;
13933;SDS011;7039;52.168;9.866;2023-04-28T06:45:38;12.63;;;5.23;;
13933;SDS011;7039;52.168;9.866;2023-04-28T06:48:05;6.10;;;4.67;;
13933;SDS011;7039;52.168;9.866;2023-04-28T06:50:33;11.33;;;5.07;;
13933;SDS011;7039;52.168;9.866;2023-04-28T06:53:00;7.43;;;4.63;;
13933;SDS011;7039;52.168;9.866;2023-04-28T06:55:26;6.87;;;4.47;;
13933;SDS011;7039;52.168;9.866;2023-04-28T06:57:53;15.27;;;4.87;;
13933;SDS011;7039;52.168;9.866;2023-04-28T07:00:19;13.53;;;4.67;;
13933;SDS011;7039;52.168;9.866;2023-04-28T07:02:46;6.77;;;4.83;;
13933;SDS011;7039;52.168;9.866;2023-04-28T07:05:13;7.90;;;4.23;;
13933;SDS011;7039;52.168;9.866;2023-04-28T07:07:40;16.47;;;5.60;;
13933;SDS011;7039;52.168;9.866;2023-04-28T07:10:07;7.23;;;4.93;;
13933;SDS011;7039;52.168;9.866;2023-04-28T07:12:35;9.47;;;4.70;;
13933;SDS011;7039;52.168;9.866;2023-04-28T07:15:01;8.33;;;5.00;;
13933;SDS011;7039;52.168;9.866;2023-04-28T07:17:28;8.23;;;4.90;;
13933;SDS011;7039;52.168;9.866;2023-04-28T07:19:54;7.83;;;4.97;;
13933;SDS011;7039;52.168;9.866;2023-04-28T07:22:21;10.90;;;4.67;;
13933;SDS011;7039;52.168;9.866;2023-04-28T07:24:48;10.20;;;5.00;;
13933;SDS011;7039;52.168;9.866;2023-04-28T07:27:15;8.73;;;5.07;;
13933;SDS011;7039;52.168;9.866;2023-04-28T07:29:41;9.27;;;4.80;;
13933;SDS011;7039;52.168;9.866;2023-04-28T07:32:08;9.90;;;5.33;;
13933;SDS011;7039;52.168;9.866;2023-04-28T07:34:34;12.40;;;5.37;;
13933;SDS011;7039;52.168;9.866;2023-04-28T07:37:02;8.13;;;4.93;;
13933;SDS011;7039;52.168;9.866;2023-04-28T07:39:29;10.20;;;5.50;;
13933;SDS011;7039;52.168;9.866;2023-04-28T07:41:57;9.60;;;5.30;;
13933;SDS011;7039;52.168;9.866;2023-04-28T07:44:24;13.27;;;5.80;;
13933;SDS011;7039;52.168;9.866;2023-04-28T07:46:50;13.67;;;6.37;;
13933;SDS011;7039;52.168;9.866;2023-04-28T07:49:18;9.80;;;5.83;;
13933;SDS011;7039;52.168;9.866;2023-04-28T07:51:45;7.17;;;5.30;;
13933;SDS011;7039;52.168;9.866;2023-04-28T07:54:12;12.30;;;5.30;;
13933;SDS011;7039;52.168;9.866;2023-04-28T07:56:38;8.00;;;5.80;;
13933;SDS011;7039;52.168;9.866;2023-04-28T07:59:06;13.57;;;5.33;;
13933;SDS011;7039;52.168;9.866;2023-04-28T08:01:34;10.10;;;5.50;;
13933;SDS011;7039;52.168;9.866;2023-04-28T08:04:00;15.90;;;6.03;;
13933;SDS011;7039;52.168;9.866;2023-04-28T08:06:27;10.07;;;5.77;;
13933;SDS011;7039;52.168;9.866;2023-04-28T08:08:54;11.37;;;6.23;;
13933;SDS011;7039;52.168;9.866;2023-04-28T08:11:20;10.50;;;6.03;;
13933;SDS011;7039;52.168;9.866;2023-04-28T08:13:47;13.60;;;5.60;;
13933;SDS011;7039;52.168;9.866;2023-04-28T08:16:15;10.97;;;6.10;;
13933;SDS011;7039;52.168;9.866;2023-04-28T08:18:42;10.80;;;6.53;;
13933;SDS011;7039;52.168;9.866;2023-04-28T08:21:09;9.57;;;6.37;;
13933;SDS011;7039;52.168;9.866;2023-04-28T08:23:36;10.03;;;6.27;;
13933;SDS011;7039;52.168;9.866;2023-04-28T08:26:03;12.37;;;6.43;;
13933;SDS011;7039;52.168;9.866;2023-04-28T08:28:29;9.50;;;5.97;;
13933;SDS011;7039;52.168;9.866;2023-04-28T08:30:57;11.33;;;6.07;;
13933;SDS011;7039;52.168;9.866;2023-04-28T08:33:26;17.40;;;6.70;;
13933;SDS011;7039;52.168;9.866;2023-04-28T08:35:52;8.77;;;6.33;;
13933;SDS011;7039;52.168;9.866;2023-04-28T08:38:20;9.73;;;7.00;;
13933;SDS011;7039;52.168;9.866;2023-04-28T08:40:48;9.83;;;6.10;;
13933;SDS011;7039;52.168;9.866;2023-04-28T08:43:14;8.03;;;5.57;;
13933;SDS011;7039;52.168;9.866;2023-04-28T08:45:41;10.67;;;5.83;;
13933;SDS011;7039;52.168;9.866;2023-04-28T08:48:11;15.80;;;7.23;;
13933;SDS011;7039;52.168;9.866;2023-04-28T08:50:47;10.13;;;6.27;;
13933;SDS011;7039;52.168;9.866;2023-04-28T08:53:16;14.27;;;6.40;;
13933;SDS011;7039;52.168;9.866;2023-04-28T08:55:47;9.87;;;6.63;;
13933;SDS011;7039;52.168;9.866;2023-04-28T08:58:15;14.80;;;6.97;;
13933;SDS011;7039;52.168;9.866;2023-04-28T09:00:42;10.23;;;6.80;;
13933;SDS011;7039;52.168;9.866;2023-04-28T09:03:09;10.47;;;6.87;;
13933;SDS011;7039;52.168;9.866;2023-04-28T09:05:36;13.17;;;6.30;;
13933;SDS011;7039;52.168;9.866;2023-04-28T09:08:04;8.83;;;6.27;;
13933;SDS011;7039;52.168;9.866;2023-04-28T09:10:30;10.10;;;6.50;;
13933;SDS011;7039;52.168;9.866;2023-04-28T09:12:57;9.33;;;6.40;;
13933;SDS011;7039;52.168;9.866;2023-04-28T09:15:24;8.50;;;6.57;;
13933;SDS011;7039;52.168;9.866;2023-04-28T09:17:51;11.43;;;7.30;;
13933;SDS011;7039;52.168;9.866;2023-04-28T09:20:18;11.97;;;7.40;;
13933;SDS011;7039;52.168;9.866;2023-04-28T09:22:46;11.23;;;7.20;;
13933;SDS011;7039;52.168;9.866;2023-04-28T09:25:15;13.03;;;7.70;;
13933;SDS011;7039;52.168;9.866;2023-04-28T09:27:42;13.90;;;6.70;;
13933;SDS011;7039;52.168;9.866;2023-04-28T09:30:08;8.10;;;6.33;;
13933;SDS011;7039;52.168;9.866;2023-04-28T09:32:35;7.80;;;6.30;;
13933;SDS011;7039;52.168;9.866;2023-04-28T09:35:02;12.80;;;6.77;;
13933;SDS011;7039;52.168;9.866;2023-04-28T09:37:31;10.20;;;6.97;;
13933;SDS011;7039;52.168;9.866;2023-04-28T09:40:02;8.37;;;6.80;;
13933;SDS011;7039;52.168;9.866;2023-04-28T09:42:33;10.50;;;6.30;;
13933;SDS011;7039;52.168;9.866;2023-04-28T09:45:00;10.73;;;7.00;;
13933;SDS011;7039;52.168;9.866;2023-04-28T09:47:27;10.50;;;7.37;;
13933;SDS011;7039;52.168;9.866;2023-04-28T09:49:55;9.47;;;6.13;;
13933;SDS011;7039;52.168;9.866;2023-04-28T09:52:22;11.63;;;7.17;;
13933;SDS011;7039;52.168;9.866;2023-04-28T09:54:49;9.20;;;7.13;;
13933;SDS011;7039;52.168;9.866;2023-04-28T09:57:16;11.47;;;7.10;;
13933;SDS011;7039;52.168;9.866;2023-04-28T09:59:45;12.30;;;6.80;;
13933;SDS011;7039;52.168;9.866;2023-04-28T10:02:13;11.00;;;6.87;;
13933;SDS011;7039;52.168;9.866;2023-04-28T10:04:41;10.13;;;7.60;;
13933;SDS011;7039;52.168;9.866;2023-04-28T10:07:09;9.53;;;7.93;;
13933;SDS011;7039;52.168;9.866;2023-04-28T10:09:37;17.07;;;7.80;;
13933;SDS011;7039;52.168;9.866;2023-04-28T10:12:03;11.03;;;6.77;;
13933;SDS011;7039;52.168;9.866;2023-04-28T10:14:30;12.20;;;6.43;;
13933;SDS011;7039;52.168;9.866;2023-04-28T10:16:59;16.57;;;7.57;;
13933;SDS011;7039;52.168;9.866;2023-04-28T10:19:27;10.47;;;6.80;;
13933;SDS011;7039;52.168;9.866;2023-04-28T10:21:55;11.27;;;6.57;;
13933;SDS011;7039;52.168;9.866;2023-04-28T10:24:33;8.07;;;6.47;;
13933;SDS011;7039;52.168;9.866;2023-04-28T10:27:19;9.50;;;6.60;;
13933;SDS011;7039;52.168;9.866;2023-04-28T10:29:46;7.63;;;6.07;;
13933;SDS011;7039;52.168;9.866;2023-04-28T10:32:14;12.37;;;6.77;;
13933;SDS011;7039;52.168;9.866;2023-04-28T10:34:42;11.57;;;6.80;;
13933;SDS011;7039;52.168;9.866;2023-04-28T10:37:09;10.57;;;7.40;;
13933;SDS011;7039;52.168;9.866;2023-04-28T10:39:38;13.13;;;7.93;;
13933;SDS011;7039;52.168;9.866;2023-04-28T10:42:06;9.33;;;6.40;;
13933;SDS011;7039;52.168;9.866;2023-04-28T10:45:19;11.83;;;7.10;;
13933;SDS011;7039;52.168;9.866;2023-04-28T10:51:34;9.97;;;6.80;;
13933;SDS011;7039;52.168;9.866;2023-04-28T10:54:17;11.23;;;7.20;;
13933;SDS011;7039;52.168;9.866;2023-04-28T10:59:46;12.57;;;7.47;;
13933;SDS011;7039;52.168;9.866;2023-04-28T11:05:12;11.80;;;7.33;;
13933;SDS011;7039;52.168;9.866;2023-04-28T11:11:17;13.07;;;7.40;;
13933;SDS011;7039;52.168;9.866;2023-04-28T11:13:45;11.53;;;7.30;;
13933;SDS011;7039;52.168;9.866;2023-04-28T11:16:13;11.80;;;7.70;;
13933;SDS011;7039;52.168;9.866;2023-04-28T11:18:49;10.63;;;7.60;;
13933;SDS011;7039;52.168;9.866;2023-04-28T11:21:28;9.63;;;7.67;;
13933;SDS011;7039;52.168;9.866;2023-04-28T11:23:56;13.30;;;7.87;;
13933;SDS011;7039;52.168;9.866;2023-04-28T11:26:25;12.27;;;6.63;;
13933;SDS011;7039;52.168;9.866;2023-04-28T11:28:53;13.83;;;7.30;;
13933;SDS011;7039;52.168;9.866;2023-04-28T11:31:21;10.67;;;7.27;;
13933;SDS011;7039;52.168;9.866;2023-04-28T11:33:50;9.30;;;7.57;;
13933;SDS011;7039;52.168;9.866;2023-04-28T11:36:30;10.80;;;7.13;;
13933;SDS011;7039;52.168;9.866;2023-04-28T11:38:58;12.87;;;7.33;;
13933;SDS011;7039;52.168;9.866;2023-04-28T11:41:26;15.57;;;7.67;;
13933;SDS011;7039;52.168;9.866;2023-04-28T11:43:53;17.53;;;7.67;;
13933;SDS011;7039;52.168;9.866;2023-04-28T11:46:20;11.97;;;7.60;;
13933;SDS011;7039;52.168;9.866;2023-04-28T11:48:48;11.60;;;7.10;;
13933;SDS011;7039;52.168;9.866;2023-04-28T11:51:31;9.13;;;7.17;;
13933;SDS011;7039;52.168;9.866;2023-04-28T11:53:59;12.23;;;7.20;;
13933;SDS011;7039;52.168;9.866;2023-04-28T11:56:28;15.67;;;8.40;;
13933;SDS011;7039;52.168;9.866;2023-04-28T11:59:01;9.50;;;6.90;;
13933;SDS011;7039;52.168;9.866;2023-04-28T12:01:28;9.80;;;7.50;;
13933;SDS011;7039;52.168;9.866;2023-04-28T12:03:55;12.30;;;7.63;;
13933;SDS011;7039;52.168;9.866;2023-04-28T12:06:21;16.23;;;7.57;;
13933;SDS011;7039;52.168;9.866;2023-04-28T12:08:48;13.90;;;7.77;;
13933;SDS011;7039;52.168;9.866;2023-04-28T12:11:15;9.83;;;7.23;;
13933;SDS011;7039;52.168;9.866;2023-04-28T12:13:43;9.47;;;7.40;;
13933;SDS011;7039;52.168;9.866;2023-04-28T12:16:35;11.50;;;8.30;;
13933;SDS011;7039;52.168;9.866;2023-04-28T12:19:03;11.20;;;7.97;;
13933;SDS011;7039;52.168;9.866;2023-04-28T12:21:33;19.00;;;9.93;;
13933;SDS011;7039;52.168;9.866;2023-04-28T12:24:00;15.03;;;7.83;;
13933;SDS011;7039;52.168;9.866;2023-04-28T12:26:27;18.60;;;8.43;;
13933;SDS011;7039;52.168;9.866;2023-04-28T12:28:55;9.67;;;8.00;;
13933;SDS011;7039;52.168;9.866;2023-04-28T12:31:21;13.97;;;8.03;;
13933;SDS011;7039;52.168;9.866;2023-04-28T12:33:47;13.57;;;7.90;;
13933;SDS011;7039;52.168;9.866;2023-04-28T12:36:14;11.10;;;8.43;;
13933;SDS011;7039;52.168;9.866;2023-04-28T12:38:46;13.57;;;8.10;;
13933;SDS011;7039;52.168;9.866;2023-04-28T12:41:13;15.13;;;9.83;;
13933;SDS011;7039;52.168;9.866;2023-04-28T12:43:40;31.30;;;18.37;;
13933;SDS011;7039;52.168;9.866;2023-04-28T12:46:09;20.40;;;13.77;;
13933;SDS011;7039;52.168;9.866;2023-04-28T12:48:38;19.13;;;10.83;;
13933;SDS011;7039;52.168;9.866;2023-04-28T12:51:05;15.17;;;8.33;;
13933;SDS011;7039;52.168;9.866;2023-04-28T12:53:32;11.47;;;8.70;;
13933;SDS011;7039;52.168;9.866;2023-04-28T12:55:59;14.27;;;9.40;;
13933;SDS011;7039;52.168;9.866;2023-04-28T12:58:26;13.67;;;8.90;;
13933;SDS011;7039;52.168;9.866;2023-04-28T13:00:52;19.37;;;10.70;;
13933;SDS011;7039;52.168;9.866;2023-04-28T13:03:20;13.47;;;10.57;;
13933;SDS011;7039;52.168;9.866;2023-04-28T13:05:47;13.97;;;8.30;;
13933;SDS011;7039;52.168;9.866;2023-04-28T13:08:13;10.53;;;8.37;;
13933;SDS011;7039;52.168;9.866;2023-04-28T13:10:40;19.67;;;10.03;;
13933;SDS011;7039;52.168;9.866;2023-04-28T13:13:06;20.10;;;9.87;;
13933;SDS011;7039;52.168;9.866;2023-04-28T13:15:33;12.80;;;9.40;;
13933;SDS011;7039;52.168;9.866;2023-04-28T13:18:00;12.30;;;8.77;;
13933;SDS011;7039;52.168;9.866;2023-04-28T13:20:27;13.47;;;9.17;;
13933;SDS011;7039;52.168;9.866;2023-04-28T13:22:54;13.43;;;8.20;;
13933;SDS011;7039;52.168;9.866;2023-04-28T13:25:20;16.43;;;9.90;;
13933;SDS011;7039;52.168;9.866;2023-04-28T13:27:47;12.83;;;8.30;;
13933;SDS011;7039;52.168;9.866;2023-04-28T13:30:13;13.03;;;7.77;;
13933;SDS011;7039;52.168;9.866;2023-04-28T13:32:40;10.97;;;8.03;;
13933;SDS011;7039;52.168;9.866;2023-04-28T13:35:06;17.07;;;9.87;;
13933;SDS011;7039;52.168;9.866;2023-04-28T13:37:35;12.70;;;8.57;;
13933;SDS011;7039;52.168;9.866;2023-04-28T13:40:07;13.67;;;9.03;;
13933;SDS011;7039;52.168;9.866;2023-04-28T13:42:35;13.90;;;8.50;;
13933;SDS011;7039;52.168;9.866;2023-04-28T13:45:02;14.87;;;9.43;;
13933;SDS011;7039;52.168;9.866;2023-04-28T13:47:29;12.63;;;8.97;;
13933;SDS011;7039;52.168;9.866;2023-04-28T13:49:56;17.47;;;9.57;;
13933;SDS011;7039;52.168;9.866;2023-04-28T13:52:24;15.50;;;9.03;;
13933;SDS011;7039;52.168;9.866;2023-04-28T13:54:52;10.77;;;7.93;;
13933;SDS011;7039;52.168;9.866;2023-04-28T13:57:18;14.33;;;9.50;;
13933;SDS011;7039;52.168;9.866;2023-04-28T13:59:45;14.20;;;8.27;;
13933;SDS011;7039;52.168;9.866;2023-04-28T14:02:11;16.90;;;9.93;;
13933;SDS011;7039;52.168;9.866;2023-04-28T14:04:38;16.23;;;9.20;;
13933;SDS011;7039;52.168;9.866;2023-04-28T14:07:04;10.97;;;7.97;;
13933;SDS011;7039;52.168;9.866;2023-04-28T14:09:31;16.17;;;7.77;;
13933;SDS011;7039;52.168;9.866;2023-04-28T14:11:59;15.47;;;7.80;;
13933;SDS011;7039;52.168;9.866;2023-04-28T14:14:26;12.40;;;8.00;;
13933;SDS011;7039;52.168;9.866;2023-04-28T14:16:52;14.30;;;8.30;;
13933;SDS011;7039;52.168;9.866;2023-04-28T14:19:19;13.67;;;8.47;;
13933;SDS011;7039;52.168;9.866;2023-04-28T14:21:45;11.33;;;7.60;;
13933;SDS011;7039;52.168;9.866;2023-04-28T14:24:12;12.47;;;7.83;;
13933;SDS011;7039;52.168;9.866;2023-04-28T14:26:39;11.70;;;9.00;;
13933;SDS011;7039;52.168;9.866;2023-04-28T14:29:09;13.73;;;8.77;;
13933;SDS011;7039;52.168;9.866;2023-04-28T14:31:35;10.27;;;7.87;;
13933;SDS011;7039;52.168;9.866;2023-04-28T14:34:02;12.37;;;7.90;;
13933;SDS011;7039;52.168;9.866;2023-04-28T14:36:29;13.33;;;8.93;;
13933;SDS011;7039;52.168;9.866;2023-04-28T14:38:57;11.73;;;8.60;;
13933;SDS011;7039;52.168;9.866;2023-04-28T14:41:23;10.77;;;8.30;;
13933;SDS011;7039;52.168;9.866;2023-04-28T14:43:50;13.87;;;8.23;;
13933;SDS011;7039;52.168;9.866;2023-04-28T14:46:18;21.27;;;9.50;;
13933;SDS011;7039;52.168;9.866;2023-04-28T14:48:47;14.50;;;9.07;;
13933;SDS011;7039;52.168;9.866;2023-04-28T14:51:13;11.43;;;8.77;;
13933;SDS011;7039;52.168;9.866;2023-04-28T14:53:40;13.27;;;8.27;;
13933;SDS011;7039;52.168;9.866;2023-04-28T14:56:07;14.57;;;8.90;;
13933;SDS011;7039;52.168;9.866;2023-04-28T14:58:34;12.10;;;9.37;;
13933;SDS011;7039;52.168;9.866;2023-04-28T15:01:00;15.43;;;9.17;;
13933;SDS011;7039;52.168;9.866;2023-04-28T15:03:28;12.50;;;9.53;;
13933;SDS011;7039;52.168;9.866;2023-04-28T15:05:55;13.77;;;9.63;;
13933;SDS011;7039;52.168;9.866;2023-04-28T15:08:21;14.10;;;9.57;;
13933;SDS011;7039;52.168;9.866;2023-04-28T15:10:48;12.27;;;9.13;;